sensor_id;sensor_type;location;lat;lon;timestamp;P1;durP1;ratioP1;P2;durP2;ratioP2
9720;SDS011;4899;42.644;23.366;2024-01-27T00:01:00;4.20;;;2.33;;
9720;SDS011;4899;42.644;23.366;2024-01-27T00:03:25;7.77;;;2.50;;
9720;SDS011;4899;42.644;23.366;2024-01-27T00:05:50;3.27;;;1.93;;
9720;SDS011;4899;42.644;23.366;2024-01-27T00:08:16;5.67;;;2.03;;
9720;SDS011;4899;42.644;23.366;2024-01-27T00:10:41;5.77;;;2.40;;
9720;SDS011;4899;42.644;23.366;2024-01-27T00:13:07;5.67;;;1.93;;
9720;SDS011;4899;42.644;23.366;2024-01-27T00:15:32;4.97;;;2.20;;
9720;SDS011;4899;42.644;23.366;2024-01-27T00:17:57;4.43;;;2.23;;
9720;SDS011;4899;42.644;23.366;2024-01-27T00:20:22;4.23;;;1.90;;
9720;SDS011;4899;42.644;23.366;2024-01-27T00:22:48;6.90;;;2.30;;
9720;SDS011;4899;42.644;23.366;2024-01-27T00:25:13;4.40;;;2.33;;
9720;SDS011;4899;42.644;23.366;2024-01-27T00:27:39;4.13;;;2.50;;
9720;SDS011;4899;42.644;23.366;2024-01-27T00:30:04;4.77;;;2.60;;
9720;SDS011;4899;42.644;23.366;2024-01-27T00:32:30;2.97;;;2.20;;
9720;SDS011;4899;42.644;23.366;2024-01-27T00:34:55;4.07;;;2.33;;
9720;SDS011;4899;42.644;23.366;2024-01-27T00:37:21;7.07;;;2.40;;
9720;SDS011;4899;42.644;23.366;2024-01-27T00:39:46;6.27;;;2.07;;
9720;SDS011;4899;42.644;23.366;2024-01-27T00:42:11;5.60;;;2.40;;
9720;SDS011;4899;42.644;23.366;2024-01-27T00:44:37;4.67;;;2.10;;
9720;SDS011;4899;42.644;23.366;2024-01-27T00:47:02;6.70;;;2.10;;
9720;SDS011;4899;42.644;23.366;2024-01-27T00:49:28;6.00;;;2.87;;
9720;SDS011;4899;42.644;23.366;2024-01-27T00:51:53;6.20;;;2.47;;
9720;SDS011;4899;42.644;23.366;2024-01-27T00:54:19;5.97;;;2.17;;
9720;SDS011;4899;42.644;23.366;2024-01-27T00:56:44;7.17;;;2.50;;
9720;SDS011;4899;42.644;23.366;2024-01-27T00:59:09;5.23;;;2.20;;
9720;SDS011;4899;42.644;23.366;2024-01-27T01:01:35;5.57;;;2.23;;
9720;SDS011;4899;42.644;23.366;2024-01-27T01:04:00;4.37;;;2.13;;
9720;SDS011;4899;42.644;23.366;2024-01-27T01:06:25;5.33;;;2.43;;
9720;SDS011;4899;42.644;23.366;2024-01-27T01:08:50;4.47;;;2.63;;
9720;SDS011;4899;42.644;23.366;2024-01-27T01:11:16;6.17;;;2.10;;
9720;SDS011;4899;42.644;23.366;2024-01-27T01:14:00;6.03;;;2.60;;
9720;SDS011;4899;42.644;23.366;2024-01-27T01:16:25;7.10;;;2.57;;
9720;SDS011;4899;42.644;23.366;2024-01-27T01:18:50;5.07;;;1.97;;
9720;SDS011;4899;42.644;23.366;2024-01-27T01:21:16;7.40;;;2.93;;
9720;SDS011;4899;42.644;23.366;2024-01-27T01:23:41;5.00;;;2.30;;
9720;SDS011;4899;42.644;23.366;2024-01-27T01:26:06;5.37;;;2.20;;
9720;SDS011;4899;42.644;23.366;2024-01-27T01:28:32;5.17;;;2.53;;
9720;SDS011;4899;42.644;23.366;2024-01-27T01:30:57;6.93;;;2.77;;
9720;SDS011;4899;42.644;23.366;2024-01-27T01:33:22;6.33;;;2.53;;
9720;SDS011;4899;42.644;23.366;2024-01-27T01:35:48;5.63;;;2.63;;
9720;SDS011;4899;42.644;23.366;2024-01-27T01:38:13;3.93;;;2.27;;
9720;SDS011;4899;42.644;23.366;2024-01-27T01:40:38;5.90;;;2.20;;
9720;SDS011;4899;42.644;23.366;2024-01-27T01:43:08;5.53;;;2.80;;
9720;SDS011;4899;42.644;23.366;2024-01-27T01:45:34;4.33;;;2.30;;
9720;SDS011;4899;42.644;23.366;2024-01-27T01:47:59;9.13;;;2.57;;
9720;SDS011;4899;42.644;23.366;2024-01-27T01:50:24;7.27;;;2.50;;
9720;SDS011;4899;42.644;23.366;2024-01-27T01:52:50;5.33;;;2.37;;
9720;SDS011;4899;42.644;23.366;2024-01-27T01:55:16;6.70;;;2.97;;
9720;SDS011;4899;42.644;23.366;2024-01-27T01:57:42;7.47;;;3.47;;
9720;SDS011;4899;42.644;23.366;2024-01-27T02:00:08;5.20;;;2.90;;
9720;SDS011;4899;42.644;23.366;2024-01-27T02:02:33;5.50;;;2.47;;
9720;SDS011;4899;42.644;23.366;2024-01-27T02:04:58;3.23;;;2.20;;
9720;SDS011;4899;42.644;23.366;2024-01-27T02:07:24;4.57;;;2.30;;
9720;SDS011;4899;42.644;23.366;2024-01-27T02:09:49;4.47;;;2.37;;
9720;SDS011;4899;42.644;23.366;2024-01-27T02:12:14;6.60;;;2.53;;
9720;SDS011;4899;42.644;23.366;2024-01-27T02:14:40;4.90;;;2.53;;
9720;SDS011;4899;42.644;23.366;2024-01-27T02:17:05;5.60;;;2.90;;
9720;SDS011;4899;42.644;23.366;2024-01-27T02:19:31;4.80;;;2.10;;
9720;SDS011;4899;42.644;23.366;2024-01-27T02:21:56;8.50;;;2.70;;
9720;SDS011;4899;42.644;23.366;2024-01-27T02:24:21;3.77;;;2.00;;
9720;SDS011;4899;42.644;23.366;2024-01-27T02:26:47;3.50;;;2.47;;
9720;SDS011;4899;42.644;23.366;2024-01-27T02:29:12;3.60;;;2.43;;
9720;SDS011;4899;42.644;23.366;2024-01-27T02:31:37;4.60;;;2.00;;
9720;SDS011;4899;42.644;23.366;2024-01-27T02:34:02;4.73;;;2.23;;
9720;SDS011;4899;42.644;23.366;2024-01-27T02:36:28;5.57;;;2.17;;
9720;SDS011;4899;42.644;23.366;2024-01-27T02:38:53;4.23;;;2.40;;
9720;SDS011;4899;42.644;23.366;2024-01-27T02:41:18;3.07;;;1.93;;
9720;SDS011;4899;42.644;23.366;2024-01-27T02:43:44;3.00;;;1.63;;
9720;SDS011;4899;42.644;23.366;2024-01-27T02:46:12;7.20;;;3.07;;
9720;SDS011;4899;42.644;23.366;2024-01-27T02:48:41;7.37;;;4.00;;
9720;SDS011;4899;42.644;23.366;2024-01-27T02:51:07;8.20;;;4.13;;
9720;SDS011;4899;42.644;23.366;2024-01-27T02:53:32;7.83;;;5.07;;
9720;SDS011;4899;42.644;23.366;2024-01-27T02:55:58;7.27;;;4.87;;
9720;SDS011;4899;42.644;23.366;2024-01-27T02:58:23;7.03;;;4.57;;
9720;SDS011;4899;42.644;23.366;2024-01-27T03:00:48;7.60;;;4.73;;
9720;SDS011;4899;42.644;23.366;2024-01-27T03:03:13;8.33;;;4.73;;
9720;SDS011;4899;42.644;23.366;2024-01-27T03:05:40;8.67;;;5.03;;
9720;SDS011;4899;42.644;23.366;2024-01-27T03:08:05;7.93;;;5.30;;
9720;SDS011;4899;42.644;23.366;2024-01-27T03:10:31;8.57;;;5.70;;
9720;SDS011;4899;42.644;23.366;2024-01-27T03:12:56;4.07;;;2.60;;
9720;SDS011;4899;42.644;23.366;2024-01-27T03:15:21;7.97;;;4.70;;
9720;SDS011;4899;42.644;23.366;2024-01-27T03:17:47;9.47;;;4.87;;
9720;SDS011;4899;42.644;23.366;2024-01-27T03:20:12;9.13;;;4.87;;
9720;SDS011;4899;42.644;23.366;2024-01-27T03:22:37;5.53;;;4.50;;
9720;SDS011;4899;42.644;23.366;2024-01-27T03:25:04;9.37;;;4.40;;
9720;SDS011;4899;42.644;23.366;2024-01-27T03:27:30;6.53;;;4.20;;
9720;SDS011;4899;42.644;23.366;2024-01-27T03:29:58;9.47;;;4.97;;
9720;SDS011;4899;42.644;23.366;2024-01-27T03:32:23;8.80;;;4.87;;
9720;SDS011;4899;42.644;23.366;2024-01-27T03:34:49;5.77;;;3.27;;
9720;SDS011;4899;42.644;23.366;2024-01-27T03:37:14;5.83;;;3.50;;
9720;SDS011;4899;42.644;23.366;2024-01-27T03:39:42;3.33;;;1.67;;
9720;SDS011;4899;42.644;23.366;2024-01-27T03:42:08;1.87;;;1.50;;
9720;SDS011;4899;42.644;23.366;2024-01-27T03:44:33;2.63;;;1.20;;
9720;SDS011;4899;42.644;23.366;2024-01-27T03:46:58;3.37;;;1.47;;
9720;SDS011;4899;42.644;23.366;2024-01-27T03:49:24;4.40;;;1.50;;
9720;SDS011;4899;42.644;23.366;2024-01-27T03:51:49;1.50;;;1.40;;
9720;SDS011;4899;42.644;23.366;2024-01-27T03:54:14;2.67;;;1.50;;
9720;SDS011;4899;42.644;23.366;2024-01-27T03:56:40;2.80;;;1.43;;
9720;SDS011;4899;42.644;23.366;2024-01-27T03:59:06;3.40;;;1.70;;
9720;SDS011;4899;42.644;23.366;2024-01-27T04:01:34;2.20;;;1.30;;
9720;SDS011;4899;42.644;23.366;2024-01-27T04:03:59;2.57;;;1.37;;
9720;SDS011;4899;42.644;23.366;2024-01-27T04:06:24;2.27;;;1.53;;
9720;SDS011;4899;42.644;23.366;2024-01-27T04:08:50;2.20;;;1.53;;
9720;SDS011;4899;42.644;23.366;2024-01-27T04:11:18;3.00;;;1.83;;
9720;SDS011;4899;42.644;23.366;2024-01-27T04:13:44;1.93;;;1.37;;
9720;SDS011;4899;42.644;23.366;2024-01-27T04:16:09;4.17;;;1.60;;
9720;SDS011;4899;42.644;23.366;2024-01-27T04:18:34;3.10;;;1.83;;
9720;SDS011;4899;42.644;23.366;2024-01-27T04:20:59;2.10;;;1.80;;
9720;SDS011;4899;42.644;23.366;2024-01-27T04:23:25;3.50;;;1.80;;
9720;SDS011;4899;42.644;23.366;2024-01-27T04:25:51;2.53;;;1.70;;
9720;SDS011;4899;42.644;23.366;2024-01-27T04:28:16;2.10;;;1.57;;
9720;SDS011;4899;42.644;23.366;2024-01-27T04:30:41;4.13;;;1.60;;
9720;SDS011;4899;42.644;23.366;2024-01-27T04:33:07;2.77;;;1.87;;
9720;SDS011;4899;42.644;23.366;2024-01-27T04:35:32;2.50;;;1.50;;
9720;SDS011;4899;42.644;23.366;2024-01-27T04:37:57;3.93;;;1.80;;
9720;SDS011;4899;42.644;23.366;2024-01-27T04:40:24;2.17;;;1.67;;
9720;SDS011;4899;42.644;23.366;2024-01-27T04:42:49;5.27;;;2.13;;
9720;SDS011;4899;42.644;23.366;2024-01-27T04:45:14;5.00;;;2.00;;
9720;SDS011;4899;42.644;23.366;2024-01-27T04:47:40;4.00;;;2.20;;
9720;SDS011;4899;42.644;23.366;2024-01-27T04:50:05;7.43;;;1.67;;
9720;SDS011;4899;42.644;23.366;2024-01-27T04:52:30;3.70;;;1.70;;
9720;SDS011;4899;42.644;23.366;2024-01-27T04:54:56;2.87;;;2.10;;
9720;SDS011;4899;42.644;23.366;2024-01-27T04:57:21;2.87;;;1.60;;
9720;SDS011;4899;42.644;23.366;2024-01-27T04:59:46;2.77;;;1.57;;
9720;SDS011;4899;42.644;23.366;2024-01-27T05:02:12;2.00;;;1.57;;
9720;SDS011;4899;42.644;23.366;2024-01-27T05:04:37;2.93;;;1.63;;
9720;SDS011;4899;42.644;23.366;2024-01-27T05:07:04;1.70;;;1.57;;
9720;SDS011;4899;42.644;23.366;2024-01-27T05:09:30;4.90;;;1.80;;
9720;SDS011;4899;42.644;23.366;2024-01-27T05:11:55;2.30;;;2.00;;
9720;SDS011;4899;42.644;23.366;2024-01-27T05:14:20;2.73;;;1.73;;
9720;SDS011;4899;42.644;23.366;2024-01-27T05:16:46;3.37;;;1.93;;
9720;SDS011;4899;42.644;23.366;2024-01-27T05:19:11;3.10;;;1.83;;
9720;SDS011;4899;42.644;23.366;2024-01-27T05:21:39;4.00;;;2.27;;
9720;SDS011;4899;42.644;23.366;2024-01-27T05:24:05;3.23;;;2.07;;
9720;SDS011;4899;42.644;23.366;2024-01-27T05:26:30;1.63;;;1.50;;
9720;SDS011;4899;42.644;23.366;2024-01-27T05:28:55;3.03;;;1.93;;
9720;SDS011;4899;42.644;23.366;2024-01-27T05:31:21;3.33;;;2.00;;
9720;SDS011;4899;42.644;23.366;2024-01-27T05:33:46;1.60;;;1.50;;
9720;SDS011;4899;42.644;23.366;2024-01-27T05:36:11;4.67;;;2.33;;
9720;SDS011;4899;42.644;23.366;2024-01-27T05:38:37;3.43;;;1.80;;
9720;SDS011;4899;42.644;23.366;2024-01-27T05:41:02;2.93;;;2.00;;
9720;SDS011;4899;42.644;23.366;2024-01-27T05:43:28;3.17;;;1.60;;
9720;SDS011;4899;42.644;23.366;2024-01-27T05:45:53;5.90;;;2.47;;
9720;SDS011;4899;42.644;23.366;2024-01-27T05:48:19;3.47;;;2.20;;
9720;SDS011;4899;42.644;23.366;2024-01-27T05:50:54;1.87;;;1.67;;
9720;SDS011;4899;42.644;23.366;2024-01-27T05:53:19;1.90;;;1.80;;
9720;SDS011;4899;42.644;23.366;2024-01-27T05:55:46;3.20;;;2.33;;
9720;SDS011;4899;42.644;23.366;2024-01-27T05:58:11;3.43;;;2.67;;
9720;SDS011;4899;42.644;23.366;2024-01-27T06:00:37;5.77;;;2.60;;
9720;SDS011;4899;42.644;23.366;2024-01-27T06:03:02;5.20;;;3.07;;
9720;SDS011;4899;42.644;23.366;2024-01-27T06:05:27;5.13;;;2.33;;
9720;SDS011;4899;42.644;23.366;2024-01-27T06:07:53;3.90;;;2.30;;
9720;SDS011;4899;42.644;23.366;2024-01-27T06:10:18;5.97;;;2.60;;
9720;SDS011;4899;42.644;23.366;2024-01-27T06:12:43;4.73;;;3.00;;
9720;SDS011;4899;42.644;23.366;2024-01-27T06:15:09;4.23;;;3.40;;
9720;SDS011;4899;42.644;23.366;2024-01-27T06:17:35;7.27;;;4.00;;
9720;SDS011;4899;42.644;23.366;2024-01-27T06:20:01;5.20;;;3.50;;
9720;SDS011;4899;42.644;23.366;2024-01-27T06:22:26;5.40;;;3.43;;
9720;SDS011;4899;42.644;23.366;2024-01-27T06:24:51;7.37;;;3.27;;
9720;SDS011;4899;42.644;23.366;2024-01-27T06:27:17;5.00;;;3.60;;
9720;SDS011;4899;42.644;23.366;2024-01-27T06:29:42;4.07;;;3.40;;
9720;SDS011;4899;42.644;23.366;2024-01-27T06:32:09;5.33;;;3.10;;
9720;SDS011;4899;42.644;23.366;2024-01-27T06:34:34;6.37;;;3.63;;
9720;SDS011;4899;42.644;23.366;2024-01-27T06:36:59;5.87;;;4.00;;
9720;SDS011;4899;42.644;23.366;2024-01-27T06:39:25;5.50;;;3.50;;
9720;SDS011;4899;42.644;23.366;2024-01-27T06:41:51;3.70;;;3.00;;
9720;SDS011;4899;42.644;23.366;2024-01-27T06:44:16;4.57;;;2.77;;
9720;SDS011;4899;42.644;23.366;2024-01-27T06:46:41;2.67;;;1.37;;
9720;SDS011;4899;42.644;23.366;2024-01-27T06:49:08;0.77;;;0.77;;
9720;SDS011;4899;42.644;23.366;2024-01-27T06:51:33;1.30;;;1.20;;
9720;SDS011;4899;42.644;23.366;2024-01-27T06:53:58;0.80;;;0.80;;
9720;SDS011;4899;42.644;23.366;2024-01-27T06:56:24;1.40;;;0.90;;
9720;SDS011;4899;42.644;23.366;2024-01-27T06:58:49;1.00;;;0.90;;
9720;SDS011;4899;42.644;23.366;2024-01-27T07:01:14;0.90;;;0.90;;
9720;SDS011;4899;42.644;23.366;2024-01-27T07:03:40;1.27;;;0.67;;
9720;SDS011;4899;42.644;23.366;2024-01-27T07:06:05;1.90;;;1.00;;
9720;SDS011;4899;42.644;23.366;2024-01-27T07:08:31;0.83;;;0.83;;
9720;SDS011;4899;42.644;23.366;2024-01-27T07:10:57;2.00;;;0.83;;
9720;SDS011;4899;42.644;23.366;2024-01-27T07:13:22;1.53;;;1.00;;
9720;SDS011;4899;42.644;23.366;2024-01-27T07:15:48;1.70;;;1.00;;
9720;SDS011;4899;42.644;23.366;2024-01-27T07:18:13;1.60;;;0.97;;
9720;SDS011;4899;42.644;23.366;2024-01-27T07:20:40;1.00;;;0.90;;
9720;SDS011;4899;42.644;23.366;2024-01-27T07:23:05;1.30;;;1.20;;
9720;SDS011;4899;42.644;23.366;2024-01-27T07:25:31;1.17;;;1.10;;
9720;SDS011;4899;42.644;23.366;2024-01-27T07:27:56;1.30;;;1.20;;
9720;SDS011;4899;42.644;23.366;2024-01-27T07:30:21;2.10;;;1.20;;
9720;SDS011;4899;42.644;23.366;2024-01-27T07:32:47;0.70;;;0.70;;
9720;SDS011;4899;42.644;23.366;2024-01-27T07:35:12;1.10;;;1.00;;
9720;SDS011;4899;42.644;23.366;2024-01-27T07:37:37;1.20;;;1.10;;
9720;SDS011;4899;42.644;23.366;2024-01-27T07:40:03;1.30;;;1.20;;
9720;SDS011;4899;42.644;23.366;2024-01-27T07:42:28;1.00;;;1.00;;
9720;SDS011;4899;42.644;23.366;2024-01-27T07:44:54;1.93;;;1.27;;
9720;SDS011;4899;42.644;23.366;2024-01-27T07:47:19;2.10;;;1.33;;
9720;SDS011;4899;42.644;23.366;2024-01-27T07:49:44;1.47;;;1.30;;
9720;SDS011;4899;42.644;23.366;2024-01-27T07:52:10;1.93;;;1.73;;
9720;SDS011;4899;42.644;23.366;2024-01-27T07:54:35;1.90;;;1.70;;
9720;SDS011;4899;42.644;23.366;2024-01-27T07:57:04;1.87;;;1.73;;
9720;SDS011;4899;42.644;23.366;2024-01-27T07:59:29;2.30;;;1.50;;
9720;SDS011;4899;42.644;23.366;2024-01-27T08:01:55;3.47;;;1.63;;
9720;SDS011;4899;42.644;23.366;2024-01-27T08:04:20;2.20;;;2.00;;
9720;SDS011;4899;42.644;23.366;2024-01-27T08:06:49;1.80;;;1.70;;
9720;SDS011;4899;42.644;23.366;2024-01-27T08:09:15;2.73;;;1.70;;
9720;SDS011;4899;42.644;23.366;2024-01-27T08:11:40;1.67;;;1.57;;
9720;SDS011;4899;42.644;23.366;2024-01-27T08:14:06;2.37;;;2.17;;
9720;SDS011;4899;42.644;23.366;2024-01-27T08:16:31;2.20;;;2.10;;
9720;SDS011;4899;42.644;23.366;2024-01-27T08:18:56;3.03;;;1.50;;
9720;SDS011;4899;42.644;23.366;2024-01-27T08:21:22;1.70;;;1.60;;
9720;SDS011;4899;42.644;23.366;2024-01-27T08:23:47;4.03;;;1.97;;
9720;SDS011;4899;42.644;23.366;2024-01-27T08:26:13;2.27;;;2.00;;
9720;SDS011;4899;42.644;23.366;2024-01-27T08:28:38;2.20;;;2.00;;
9720;SDS011;4899;42.644;23.366;2024-01-27T08:31:04;3.80;;;2.10;;
9720;SDS011;4899;42.644;23.366;2024-01-27T08:33:29;2.87;;;2.00;;
9720;SDS011;4899;42.644;23.366;2024-01-27T08:35:55;4.47;;;1.40;;
9720;SDS011;4899;42.644;23.366;2024-01-27T08:38:20;1.53;;;1.40;;
9720;SDS011;4899;42.644;23.366;2024-01-27T08:40:45;3.50;;;2.10;;
9720;SDS011;4899;42.644;23.366;2024-01-27T08:43:11;2.20;;;1.57;;
9720;SDS011;4899;42.644;23.366;2024-01-27T08:45:39;1.83;;;1.70;;
9720;SDS011;4899;42.644;23.366;2024-01-27T08:48:05;3.53;;;1.80;;
9720;SDS011;4899;42.644;23.366;2024-01-27T08:50:30;1.60;;;1.50;;
9720;SDS011;4899;42.644;23.366;2024-01-27T08:52:56;1.73;;;1.63;;
9720;SDS011;4899;42.644;23.366;2024-01-27T08:55:21;1.67;;;1.50;;
9720;SDS011;4899;42.644;23.366;2024-01-27T08:57:49;1.63;;;1.53;;
9720;SDS011;4899;42.644;23.366;2024-01-27T09:00:14;1.90;;;1.63;;
9720;SDS011;4899;42.644;23.366;2024-01-27T09:02:41;1.63;;;1.30;;
9720;SDS011;4899;42.644;23.366;2024-01-27T09:05:06;8.00;;;1.67;;
9720;SDS011;4899;42.644;23.366;2024-01-27T09:07:33;2.83;;;1.60;;
9720;SDS011;4899;42.644;23.366;2024-01-27T09:09:58;1.43;;;1.33;;
9720;SDS011;4899;42.644;23.366;2024-01-27T09:12:23;1.93;;;1.20;;
9720;SDS011;4899;42.644;23.366;2024-01-27T09:14:49;2.23;;;1.60;;
9720;SDS011;4899;42.644;23.366;2024-01-27T09:17:14;1.40;;;1.30;;
9720;SDS011;4899;42.644;23.366;2024-01-27T09:19:39;1.97;;;1.33;;
9720;SDS011;4899;42.644;23.366;2024-01-27T09:22:05;1.03;;;1.03;;
9720;SDS011;4899;42.644;23.366;2024-01-27T09:24:30;2.13;;;1.20;;
9720;SDS011;4899;42.644;23.366;2024-01-27T09:26:55;2.80;;;1.47;;
9720;SDS011;4899;42.644;23.366;2024-01-27T09:29:21;1.30;;;1.20;;
9720;SDS011;4899;42.644;23.366;2024-01-27T09:31:46;2.03;;;1.63;;
9720;SDS011;4899;42.644;23.366;2024-01-27T09:34:11;1.90;;;1.40;;
9720;SDS011;4899;42.644;23.366;2024-01-27T09:36:37;1.50;;;1.40;;
9720;SDS011;4899;42.644;23.366;2024-01-27T09:39:02;1.60;;;1.50;;
9720;SDS011;4899;42.644;23.366;2024-01-27T09:41:30;1.43;;;1.33;;
9720;SDS011;4899;42.644;23.366;2024-01-27T09:43:56;2.80;;;1.47;;
9720;SDS011;4899;42.644;23.366;2024-01-27T09:46:24;2.40;;;1.43;;
9720;SDS011;4899;42.644;23.366;2024-01-27T09:48:50;1.50;;;1.40;;
9720;SDS011;4899;42.644;23.366;2024-01-27T09:51:16;2.80;;;1.70;;
9720;SDS011;4899;42.644;23.366;2024-01-27T09:53:41;2.07;;;1.63;;
9720;SDS011;4899;42.644;23.366;2024-01-27T09:56:07;1.63;;;1.37;;
9720;SDS011;4899;42.644;23.366;2024-01-27T09:58:32;1.17;;;1.17;;
9720;SDS011;4899;42.644;23.366;2024-01-27T10:00:58;1.23;;;1.20;;
9720;SDS011;4899;42.644;23.366;2024-01-27T10:03:27;1.73;;;1.40;;
9720;SDS011;4899;42.644;23.366;2024-01-27T10:05:53;1.27;;;1.27;;
9720;SDS011;4899;42.644;23.366;2024-01-27T10:08:19;1.33;;;1.23;;
9720;SDS011;4899;42.644;23.366;2024-01-27T10:10:45;1.40;;;1.30;;
9720;SDS011;4899;42.644;23.366;2024-01-27T10:13:10;1.53;;;1.30;;
9720;SDS011;4899;42.644;23.366;2024-01-27T10:15:39;1.40;;;1.30;;
9720;SDS011;4899;42.644;23.366;2024-01-27T10:18:05;1.20;;;1.20;;
9720;SDS011;4899;42.644;23.366;2024-01-27T10:20:31;0.90;;;0.90;;
9720;SDS011;4899;42.644;23.366;2024-01-27T10:22:56;1.17;;;1.17;;
9720;SDS011;4899;42.644;23.366;2024-01-27T10:25:22;1.77;;;1.40;;
9720;SDS011;4899;42.644;23.366;2024-01-27T10:27:48;0.93;;;0.93;;
9720;SDS011;4899;42.644;23.366;2024-01-27T10:30:16;1.50;;;1.00;;
9720;SDS011;4899;42.644;23.366;2024-01-27T10:32:42;1.10;;;1.10;;
9720;SDS011;4899;42.644;23.366;2024-01-27T10:35:08;1.00;;;0.90;;
9720;SDS011;4899;42.644;23.366;2024-01-27T10:37:34;1.00;;;1.00;;
9720;SDS011;4899;42.644;23.366;2024-01-27T10:40:02;1.00;;;1.00;;
9720;SDS011;4899;42.644;23.366;2024-01-27T10:42:28;1.10;;;1.10;;
9720;SDS011;4899;42.644;23.366;2024-01-27T10:44:55;1.37;;;1.27;;
9720;SDS011;4899;42.644;23.366;2024-01-27T10:47:23;1.20;;;1.20;;
9720;SDS011;4899;42.644;23.366;2024-01-27T10:49:50;1.67;;;1.10;;
9720;SDS011;4899;42.644;23.366;2024-01-27T10:52:15;0.90;;;0.90;;
9720;SDS011;4899;42.644;23.366;2024-01-27T10:54:43;1.13;;;1.10;;
9720;SDS011;4899;42.644;23.366;2024-01-27T10:57:10;1.80;;;1.40;;
9720;SDS011;4899;42.644;23.366;2024-01-27T10:59:36;1.50;;;1.40;;
9720;SDS011;4899;42.644;23.366;2024-01-27T11:02:02;1.50;;;1.37;;
9720;SDS011;4899;42.644;23.366;2024-01-27T11:04:29;1.10;;;1.00;;
9720;SDS011;4899;42.644;23.366;2024-01-27T11:06:57;1.20;;;1.10;;
9720;SDS011;4899;42.644;23.366;2024-01-27T11:09:23;1.20;;;1.10;;
9720;SDS011;4899;42.644;23.366;2024-01-27T11:11:49;1.20;;;1.10;;
9720;SDS011;4899;42.644;23.366;2024-01-27T11:14:15;0.80;;;0.80;;
9720;SDS011;4899;42.644;23.366;2024-01-27T11:16:40;1.53;;;1.30;;
9720;SDS011;4899;42.644;23.366;2024-01-27T11:19:11;2.53;;;1.27;;
9720;SDS011;4899;42.644;23.366;2024-01-27T11:21:39;1.13;;;1.03;;
9720;SDS011;4899;42.644;23.366;2024-01-27T11:26:39;1.53;;;1.43;;
9720;SDS011;4899;42.644;23.366;2024-01-27T11:29:07;1.27;;;1.00;;
9720;SDS011;4899;42.644;23.366;2024-01-27T11:31:34;1.87;;;1.23;;
9720;SDS011;4899;42.644;23.366;2024-01-27T11:34:00;1.80;;;1.63;;
9720;SDS011;4899;42.644;23.366;2024-01-27T11:36:25;1.90;;;1.80;;
9720;SDS011;4899;42.644;23.366;2024-01-27T11:38:52;1.83;;;1.73;;
9720;SDS011;4899;42.644;23.366;2024-01-27T11:41:27;1.70;;;1.60;;
9720;SDS011;4899;42.644;23.366;2024-01-27T11:43:53;2.07;;;1.90;;
9720;SDS011;4899;42.644;23.366;2024-01-27T11:46:19;1.70;;;1.60;;
9720;SDS011;4899;42.644;23.366;2024-01-27T11:48:45;1.70;;;1.60;;
9720;SDS011;4899;42.644;23.366;2024-01-27T11:51:11;2.13;;;1.90;;
9720;SDS011;4899;42.644;23.366;2024-01-27T11:53:36;2.03;;;1.93;;
9720;SDS011;4899;42.644;23.366;2024-01-27T11:56:02;2.70;;;1.80;;
9720;SDS011;4899;42.644;23.366;2024-01-27T11:58:28;1.77;;;1.67;;
9720;SDS011;4899;42.644;23.366;2024-01-27T12:00:55;1.60;;;1.50;;
9720;SDS011;4899;42.644;23.366;2024-01-27T12:03:20;2.00;;;1.90;;
9720;SDS011;4899;42.644;23.366;2024-01-27T12:05:46;1.83;;;1.73;;
9720;SDS011;4899;42.644;23.366;2024-01-27T12:08:11;1.57;;;1.40;;
9720;SDS011;4899;42.644;23.366;2024-01-27T12:10:37;1.73;;;1.63;;
9720;SDS011;4899;42.644;23.366;2024-01-27T12:13:03;1.50;;;1.40;;
9720;SDS011;4899;42.644;23.366;2024-01-27T12:15:28;2.00;;;1.80;;
9720;SDS011;4899;42.644;23.366;2024-01-27T12:17:54;2.13;;;1.93;;
9720;SDS011;4899;42.644;23.366;2024-01-27T12:20:19;2.20;;;2.00;;
9720;SDS011;4899;42.644;23.366;2024-01-27T12:22:47;1.80;;;1.70;;
9720;SDS011;4899;42.644;23.366;2024-01-27T12:25:12;1.70;;;1.60;;
9720;SDS011;4899;42.644;23.366;2024-01-27T12:27:40;1.77;;;1.67;;
9720;SDS011;4899;42.644;23.366;2024-01-27T12:30:06;1.90;;;1.70;;
9720;SDS011;4899;42.644;23.366;2024-01-27T12:32:32;1.90;;;1.70;;
9720;SDS011;4899;42.644;23.366;2024-01-27T12:34:58;2.80;;;1.40;;
9720;SDS011;4899;42.644;23.366;2024-01-27T12:37:26;1.43;;;1.30;;
9720;SDS011;4899;42.644;23.366;2024-01-27T12:39:51;1.90;;;1.70;;
9720;SDS011;4899;42.644;23.366;2024-01-27T12:42:17;1.17;;;1.17;;
9720;SDS011;4899;42.644;23.366;2024-01-27T12:44:42;2.47;;;1.30;;
9720;SDS011;4899;42.644;23.366;2024-01-27T12:47:09;1.80;;;1.70;;
9720;SDS011;4899;42.644;23.366;2024-01-27T12:49:35;3.37;;;1.47;;
9720;SDS011;4899;42.644;23.366;2024-01-27T12:52:00;1.73;;;1.43;;
9720;SDS011;4899;42.644;23.366;2024-01-27T12:54:25;2.77;;;2.17;;
9720;SDS011;4899;42.644;23.366;2024-01-27T12:56:51;1.87;;;1.77;;
9720;SDS011;4899;42.644;23.366;2024-01-27T12:59:16;1.53;;;1.03;;
9720;SDS011;4899;42.644;23.366;2024-01-27T13:01:42;2.43;;;1.87;;
9720;SDS011;4899;42.644;23.366;2024-01-27T13:04:07;2.13;;;1.37;;
9720;SDS011;4899;42.644;23.366;2024-01-27T13:06:32;1.37;;;1.27;;
9720;SDS011;4899;42.644;23.366;2024-01-27T13:08:58;3.13;;;1.70;;
9720;SDS011;4899;42.644;23.366;2024-01-27T13:11:23;1.10;;;1.10;;
9720;SDS011;4899;42.644;23.366;2024-01-27T13:13:49;1.87;;;1.53;;
9720;SDS011;4899;42.644;23.366;2024-01-27T13:16:14;0.97;;;0.93;;
9720;SDS011;4899;42.644;23.366;2024-01-27T13:18:40;1.93;;;1.60;;
9720;SDS011;4899;42.644;23.366;2024-01-27T13:21:05;1.63;;;1.30;;
9720;SDS011;4899;42.644;23.366;2024-01-27T13:23:33;1.37;;;1.20;;
9720;SDS011;4899;42.644;23.366;2024-01-27T13:25:59;1.73;;;1.63;;
9720;SDS011;4899;42.644;23.366;2024-01-27T13:28:24;2.20;;;1.33;;
9720;SDS011;4899;42.644;23.366;2024-01-27T13:30:50;1.67;;;1.43;;
9720;SDS011;4899;42.644;23.366;2024-01-27T13:33:15;1.30;;;1.20;;
9720;SDS011;4899;42.644;23.366;2024-01-27T13:35:41;1.00;;;1.00;;
9720;SDS011;4899;42.644;23.366;2024-01-27T13:38:11;1.10;;;1.00;;
9720;SDS011;4899;42.644;23.366;2024-01-27T13:40:37;1.93;;;1.40;;
9720;SDS011;4899;42.644;23.366;2024-01-27T13:43:03;2.37;;;1.17;;
9720;SDS011;4899;42.644;23.366;2024-01-27T13:45:28;1.63;;;1.03;;
9720;SDS011;4899;42.644;23.366;2024-01-27T13:47:53;2.43;;;1.13;;
9720;SDS011;4899;42.644;23.366;2024-01-27T13:50:19;1.10;;;1.10;;
9720;SDS011;4899;42.644;23.366;2024-01-27T13:52:44;1.73;;;1.40;;
9720;SDS011;4899;42.644;23.366;2024-01-27T13:55:11;1.23;;;1.13;;
9720;SDS011;4899;42.644;23.366;2024-01-27T13:57:36;2.13;;;1.03;;
9720;SDS011;4899;42.644;23.366;2024-01-27T14:00:02;1.70;;;1.27;;
9720;SDS011;4899;42.644;23.366;2024-01-27T14:02:27;1.33;;;1.17;;
9720;SDS011;4899;42.644;23.366;2024-01-27T14:04:54;1.23;;;1.13;;
9720;SDS011;4899;42.644;23.366;2024-01-27T14:07:19;1.50;;;1.40;;
9720;SDS011;4899;42.644;23.366;2024-01-27T14:09:45;2.73;;;1.27;;
9720;SDS011;4899;42.644;23.366;2024-01-27T14:12:10;1.10;;;1.10;;
9720;SDS011;4899;42.644;23.366;2024-01-27T14:14:35;2.07;;;1.10;;
9720;SDS011;4899;42.644;23.366;2024-01-27T14:17:04;2.07;;;1.43;;
9720;SDS011;4899;42.644;23.366;2024-01-27T14:19:29;1.50;;;1.40;;
9720;SDS011;4899;42.644;23.366;2024-01-27T14:21:54;1.57;;;1.10;;
9720;SDS011;4899;42.644;23.366;2024-01-27T14:24:20;2.40;;;1.60;;
9720;SDS011;4899;42.644;23.366;2024-01-27T14:26:46;1.90;;;1.50;;
9720;SDS011;4899;42.644;23.366;2024-01-27T14:29:11;2.20;;;1.40;;
9720;SDS011;4899;42.644;23.366;2024-01-27T14:31:36;2.27;;;1.30;;
9720;SDS011;4899;42.644;23.366;2024-01-27T14:34:02;2.47;;;1.40;;
9720;SDS011;4899;42.644;23.366;2024-01-27T14:36:27;1.63;;;1.40;;
9720;SDS011;4899;42.644;23.366;2024-01-27T14:38:52;2.97;;;1.10;;
9720;SDS011;4899;42.644;23.366;2024-01-27T14:41:18;0.80;;;0.80;;
9720;SDS011;4899;42.644;23.366;2024-01-27T14:43:43;2.67;;;1.30;;
9720;SDS011;4899;42.644;23.366;2024-01-27T14:46:08;1.57;;;1.17;;
9720;SDS011;4899;42.644;23.366;2024-01-27T14:48:34;1.97;;;1.37;;
9720;SDS011;4899;42.644;23.366;2024-01-27T14:51:00;1.77;;;1.30;;
9720;SDS011;4899;42.644;23.366;2024-01-27T14:53:25;2.90;;;1.90;;